sensor_id;sensor_type;location;lat;lon;timestamp;pressure;altitude;pressure_sealevel;temperature;humidity
25156;BME280;21913;52.456;13.634;2023-02-15T00:03:38;101614.41;;;11.63;64.88
25156;BME280;21913;52.456;13.634;2023-02-15T00:08:39;101605.75;;;11.63;65.02
25156;BME280;21913;52.456;13.634;2023-02-15T00:13:41;101607.53;;;11.64;64.93
25156;BME280;21913;52.456;13.634;2023-02-15T00:18:43;101605.75;;;11.63;64.88
25156;BME280;21913;52.456;13.634;2023-02-15T00:23:44;101596.25;;;11.63;64.80
25156;BME280;21913;52.456;13.634;2023-02-15T00:28:46;101597.13;;;11.62;64.87
25156;BME280;21913;52.456;13.634;2023-02-15T00:33:47;101583.28;;;11.62;64.87
25156;BME280;21913;52.456;13.634;2023-02-15T00:38:49;101585.03;;;11.63;64.85
25156;BME280;21913;52.456;13.634;2023-02-15T00:43:51;101578.09;;;11.62;64.81
25156;BME280;21913;52.456;13.634;2023-02-15T00:48:52;101582.44;;;11.63;64.90
25156;BME280;21913;52.456;13.634;2023-02-15T00:53:54;101586.75;;;11.62;64.93
25156;BME280;21913;52.456;13.634;2023-02-15T00:58:55;101586.72;;;11.61;65.04
25156;BME280;21913;52.456;13.634;2023-02-15T01:03:57;101577.22;;;11.61;64.78
25156;BME280;21913;52.456;13.634;2023-02-15T01:08:59;101575.50;;;11.62;64.79
25156;BME280;21913;52.456;13.634;2023-02-15T01:14:00;101576.34;;;11.61;64.79
25156;BME280;21913;52.456;13.634;2023-02-15T01:19:02;101569.44;;;11.61;64.71
25156;BME280;21913;52.456;13.634;2023-02-15T01:24:11;101570.31;;;11.62;64.80
25156;BME280;21913;52.456;13.634;2023-02-15T01:29:13;101568.56;;;11.61;64.65
25156;BME280;21913;52.456;13.634;2023-02-15T01:34:14;101567.69;;;11.60;64.72
25156;BME280;21913;52.456;13.634;2023-02-15T01:39:16;101558.22;;;11.61;64.86
25156;BME280;21913;52.456;13.634;2023-02-15T01:49:45;101549.56;;;11.60;64.73
25156;BME280;21913;52.456;13.634;2023-02-15T01:54:48;101546.97;;;11.60;64.76
25156;BME280;21913;52.456;13.634;2023-02-15T01:59:53;101539.22;;;11.62;64.70
25156;BME280;21913;52.456;13.634;2023-02-15T02:04:59;101539.19;;;11.60;64.76
25156;BME280;21913;52.456;13.634;2023-02-15T02:10:03;101527.06;;;11.59;64.76
25156;BME280;21913;52.456;13.634;2023-02-15T02:15:07;101522.75;;;11.59;64.50
25156;BME280;21913;52.456;13.634;2023-02-15T02:41:40;101492.50;;;11.58;64.66
25156;BME280;21913;52.456;13.634;2023-02-15T02:46:57;101488.19;;;11.59;64.67
25156;BME280;21913;52.456;13.634;2023-02-15T02:52:05;101486.44;;;11.58;64.64
25156;BME280;21913;52.456;13.634;2023-02-15T02:57:08;101488.13;;;11.57;64.60
25156;BME280;21913;52.456;13.634;2023-02-15T03:02:19;101485.53;;;11.57;64.69
25156;BME280;21913;52.456;13.634;2023-02-15T03:07:23;101480.38;;;11.57;64.56
25156;BME280;21913;52.456;13.634;2023-02-15T03:12:36;101472.59;;;11.57;64.64
25156;BME280;21913;52.456;13.634;2023-02-15T03:17:43;101471.78;;;11.58;64.47
25156;BME280;21913;52.456;13.634;2023-02-15T03:22:52;101476.94;;;11.58;64.50
25156;BME280;21913;52.456;13.634;2023-02-15T03:28:04;101470.00;;;11.57;64.57
25156;BME280;21913;52.456;13.634;2023-02-15T03:33:09;101474.31;;;11.57;64.50
25156;BME280;21913;52.456;13.634;2023-02-15T03:38:14;101481.28;;;11.58;64.61
25156;BME280;21913;52.456;13.634;2023-02-15T03:43:23;101475.19;;;11.57;64.59
25156;BME280;21913;52.456;13.634;2023-02-15T03:48:35;101457.88;;;11.56;64.49
25156;BME280;21913;52.456;13.634;2023-02-15T03:53:39;101458.75;;;11.57;64.50
25156;BME280;21913;52.456;13.634;2023-02-15T03:58:41;101451.81;;;11.56;64.45
25156;BME280;21913;52.456;13.634;2023-02-15T04:03:53;101443.19;;;11.57;64.36
25156;BME280;21913;52.456;13.634;2023-02-15T04:08:56;101435.41;;;11.55;64.52
25156;BME280;21913;52.456;13.634;2023-02-15T04:13:58;101443.19;;;11.55;64.49
25156;BME280;21913;52.456;13.634;2023-02-15T04:18:59;101441.47;;;11.56;64.42
25156;BME280;21913;52.456;13.634;2023-02-15T04:24:01;101438.00;;;11.55;64.55
25156;BME280;21913;52.456;13.634;2023-02-15T04:29:03;101444.91;;;11.55;64.47
25156;BME280;21913;52.456;13.634;2023-02-15T04:34:04;101440.59;;;11.55;64.53
25156;BME280;21913;52.456;13.634;2023-02-15T04:39:06;101440.59;;;11.55;64.42
25156;BME280;21913;52.456;13.634;2023-02-15T04:44:09;101433.69;;;11.56;64.42
25156;BME280;21913;52.456;13.634;2023-02-15T04:49:10;101420.72;;;11.56;64.29
25156;BME280;21913;52.456;13.634;2023-02-15T04:54:12;101425.03;;;11.55;64.37
25156;BME280;21913;52.456;13.634;2023-02-15T04:59:14;101423.31;;;11.56;64.37
25156;BME280;21913;52.456;13.634;2023-02-15T05:04:15;101417.25;;;11.54;64.44
25156;BME280;21913;52.456;13.634;2023-02-15T05:09:17;101413.81;;;11.55;64.36
25156;BME280;21913;52.456;13.634;2023-02-15T05:14:19;101408.63;;;11.55;64.43
25156;BME280;21913;52.456;13.634;2023-02-15T05:19:20;101416.41;;;11.55;64.09
25156;BME280;21913;52.456;13.634;2023-02-15T05:24:22;101403.44;;;11.55;64.36
25156;BME280;21913;52.456;13.634;2023-02-15T05:29:23;101403.44;;;11.55;64.34
25156;BME280;21913;52.456;13.634;2023-02-15T05:34:25;101410.34;;;11.54;64.37
25156;BME280;21913;52.456;13.634;2023-02-15T05:39:27;101405.16;;;11.54;64.40
25156;BME280;21913;52.456;13.634;2023-02-15T05:44:28;101400.84;;;11.55;64.11
25156;BME280;21913;52.456;13.634;2023-02-15T05:49:30;101400.81;;;11.53;64.31
25156;BME280;21913;52.456;13.634;2023-02-15T05:54:31;101391.31;;;11.54;64.35
25156;BME280;21913;52.456;13.634;2023-02-15T05:59:33;101405.16;;;11.54;64.23
25156;BME280;21913;52.456;13.634;2023-02-15T06:04:34;101401.63;;;11.52;64.16
25156;BME280;21913;52.456;13.634;2023-02-15T06:09:36;101396.47;;;11.52;64.38
25156;BME280;21913;52.456;13.634;2023-02-15T06:14:38;101396.50;;;11.54;64.11
25156;BME280;21913;52.456;13.634;2023-02-15T06:19:39;101392.13;;;11.51;64.21
25156;BME280;21913;52.456;13.634;2023-02-15T06:24:41;101393.00;;;11.52;64.18
25156;BME280;21913;52.456;13.634;2023-02-15T06:29:42;101397.31;;;11.51;64.17
25156;BME280;21913;52.456;13.634;2023-02-15T06:34:44;101393.00;;;11.52;64.04
25156;BME280;21913;52.456;13.634;2023-02-15T06:39:46;101397.31;;;11.51;64.06
25156;BME280;21913;52.456;13.634;2023-02-15T06:44:48;101392.13;;;11.51;64.24
25156;BME280;21913;52.456;13.634;2023-02-15T06:49:50;101398.19;;;11.52;64.20
25156;BME280;21913;52.456;13.634;2023-02-15T06:54:51;101402.50;;;11.51;64.22
25156;BME280;21913;52.456;13.634;2023-02-15T06:59:53;101398.16;;;11.50;64.00
25156;BME280;21913;52.456;13.634;2023-02-15T07:04:54;101399.03;;;11.51;64.20
25156;BME280;21913;52.456;13.634;2023-02-15T07:09:56;101401.63;;;11.51;64.04
25156;BME280;21913;52.456;13.634;2023-02-15T07:14:58;101396.44;;;11.51;64.04
25156;BME280;21913;52.456;13.634;2023-02-15T07:19:59;101396.44;;;11.51;63.88
25156;BME280;21913;52.456;13.634;2023-02-15T07:25:02;101393.00;;;11.52;63.96
25156;BME280;21913;52.456;13.634;2023-02-15T07:30:06;101397.31;;;11.51;64.01
25156;BME280;21913;52.456;13.634;2023-02-15T07:35:08;101390.38;;;11.50;64.11
25156;BME280;21913;52.456;13.634;2023-02-15T07:40:09;101387.78;;;11.50;63.96
25156;BME280;21913;52.456;13.634;2023-02-15T07:45:11;101386.91;;;11.50;64.11
25156;BME280;21913;52.456;13.634;2023-02-15T07:50:13;101386.06;;;11.49;63.99
25156;BME280;21913;52.456;13.634;2023-02-15T07:55:14;101380.00;;;11.50;64.15
25156;BME280;21913;52.456;13.634;2023-02-15T08:00:18;101381.75;;;11.50;64.06
25156;BME280;21913;52.456;13.634;2023-02-15T08:05:20;101369.66;;;11.50;63.98
25156;BME280;21913;52.456;13.634;2023-02-15T08:10:21;101367.06;;;11.50;63.99
25156;BME280;21913;52.456;13.634;2023-02-15T08:15:24;101357.53;;;11.49;64.12
25156;BME280;21913;52.456;13.634;2023-02-15T08:20:26;101359.28;;;11.50;64.07
25156;BME280;21913;52.456;13.634;2023-02-15T08:25:28;101349.78;;;11.49;64.08
25156;BME280;21913;52.456;13.634;2023-02-15T08:30:29;101354.09;;;11.50;63.97
25156;BME280;21913;52.456;13.634;2023-02-15T08:35:31;101358.41;;;11.48;64.01
25156;BME280;21913;52.456;13.634;2023-02-15T08:40:32;101352.34;;;11.49;64.00
25156;BME280;21913;52.456;13.634;2023-02-15T08:45:35;101341.13;;;11.50;64.02
25156;BME280;21913;52.456;13.634;2023-02-15T08:50:37;101339.41;;;11.49;64.12
25156;BME280;21913;52.456;13.634;2023-02-15T08:55:40;101340.28;;;11.50;64.00
25156;BME280;21913;52.456;13.634;2023-02-15T09:00:41;101335.94;;;11.49;64.14
25156;BME280;21913;52.456;13.634;2023-02-15T09:05:43;101329.88;;;11.48;63.99
25156;BME280;21913;52.456;13.634;2023-02-15T09:10:45;101329.88;;;11.48;64.02
25156;BME280;21913;52.456;13.634;2023-02-15T09:15:46;101319.53;;;11.48;64.24
25156;BME280;21913;52.456;13.634;2023-02-15T09:20:48;101306.56;;;11.48;64.12
25156;BME280;21913;52.456;13.634;2023-02-15T09:25:50;101310.88;;;11.49;64.19
25156;BME280;21913;52.456;13.634;2023-02-15T09:30:51;101304.00;;;11.50;64.02
25156;BME280;21913;52.456;13.634;2023-02-15T09:35:53;101294.47;;;11.49;64.10
25156;BME280;21913;52.456;13.634;2023-02-15T09:41:22;101302.25;;;11.50;64.10
25156;BME280;21913;52.456;13.634;2023-02-15T10:12:56;101310.06;;;11.52;64.03
25156;BME280;21913;52.456;13.634;2023-02-15T10:34:19;101305.72;;;11.51;64.01
25156;BME280;21913;52.456;13.634;2023-02-15T10:50:05;101304.84;;;11.50;64.33
25156;BME280;21913;52.456;13.634;2023-02-15T11:06:01;101288.44;;;11.51;64.33
25156;BME280;21913;52.456;13.634;2023-02-15T11:11:07;101285.00;;;11.51;64.35
25156;BME280;21913;52.456;13.634;2023-02-15T11:16:14;101282.41;;;11.51;64.35
25156;BME280;21913;52.456;13.634;2023-02-15T11:26:34;101272.91;;;11.51;64.33
25156;BME280;21913;52.456;13.634;2023-02-15T11:31:51;101270.31;;;11.51;64.39
25156;BME280;21913;52.456;13.634;2023-02-15T11:36:59;101278.09;;;11.51;64.37
25156;BME280;21913;52.456;13.634;2023-02-15T11:42:14;101263.41;;;11.52;64.55
25156;BME280;21913;52.456;13.634;2023-02-15T11:47:18;101255.63;;;11.50;64.25
25156;BME280;21913;52.456;13.634;2023-02-15T11:52:19;101257.34;;;11.51;64.37
25156;BME280;21913;52.456;13.634;2023-02-15T11:57:34;101244.38;;;11.51;64.26
25156;BME280;21913;52.456;13.634;2023-02-15T12:02:43;101246.13;;;11.51;64.33
25156;BME280;21913;52.456;13.634;2023-02-15T12:07:50;101243.53;;;11.51;64.42
25156;BME280;21913;52.456;13.634;2023-02-15T12:23:29;101220.19;;;11.51;64.46
25156;BME280;21913;52.456;13.634;2023-02-15T12:28:36;101218.47;;;11.51;64.32
25156;BME280;21913;52.456;13.634;2023-02-15T12:33:42;101208.09;;;11.51;64.44
25156;BME280;21913;52.456;13.634;2023-02-15T12:44:05;101197.72;;;11.51;64.57
25156;BME280;21913;52.456;13.634;2023-02-15T12:49:19;101197.72;;;11.51;64.52
25156;BME280;21913;52.456;13.634;2023-02-15T12:54:34;101189.97;;;11.51;64.35
25156;BME280;21913;52.456;13.634;2023-02-15T12:59:36;101196.00;;;11.52;64.51
25156;BME280;21913;52.456;13.634;2023-02-15T13:04:47;101198.59;;;11.52;64.57
25156;BME280;21913;52.456;13.634;2023-02-15T13:09:50;101186.50;;;11.52;64.48
25156;BME280;21913;52.456;13.634;2023-02-15T13:14:54;101182.22;;;11.53;64.12
25156;BME280;21913;52.456;13.634;2023-02-15T13:20:09;101178.75;;;11.52;64.20
25156;BME280;21913;52.456;13.634;2023-02-15T13:25:23;101172.69;;;11.52;64.32
25156;BME280;21913;52.456;13.634;2023-02-15T13:30:32;101168.38;;;11.52;64.23
25156;BME280;21913;52.456;13.634;2023-02-15T13:41:11;101151.94;;;11.52;64.43
25156;BME280;21913;52.456;13.634;2023-02-15T13:57:08;101127.75;;;11.51;64.49
25156;BME280;21913;52.456;13.634;2023-02-15T14:02:35;101119.97;;;11.51;64.58
25156;BME280;21913;52.456;13.634;2023-02-15T14:39:57;101115.66;;;11.52;64.65
25156;BME280;21913;52.456;13.634;2023-02-15T14:45:15;101113.94;;;11.52;64.54
25156;BME280;21913;52.456;13.634;2023-02-15T14:55:36;101105.31;;;11.52;64.70
25156;BME280;21913;52.456;13.634;2023-02-15T15:00:39;101102.72;;;11.52;64.74
25156;BME280;21913;52.456;13.634;2023-02-15T15:05:50;101090.63;;;11.52;64.61
25156;BME280;21913;52.456;13.634;2023-02-15T15:10:53;101083.75;;;11.53;64.50
25156;BME280;21913;52.456;13.634;2023-02-15T15:15:56;101085.47;;;11.54;64.07
25156;BME280;21913;52.456;13.634;2023-02-15T15:20:57;101084.63;;;11.55;64.29
25156;BME280;21913;52.456;13.634;2023-02-15T15:26:22;101088.06;;;11.55;64.09
25156;BME280;21913;52.456;13.634;2023-02-15T15:31:37;101092.41;;;11.55;64.18
25156;BME280;21913;52.456;13.634;2023-02-15T15:43:03;101095.00;;;11.55;64.41
25156;BME280;21913;52.456;13.634;2023-02-15T15:47:58;101099.31;;;11.54;64.38
25156;BME280;21913;52.456;13.634;2023-02-15T15:53:18;101088.06;;;11.55;64.47
25156;BME280;21913;52.456;13.634;2023-02-15T15:58:22;101084.63;;;11.53;64.48
25156;BME280;21913;52.456;13.634;2023-02-15T16:03:27;101081.16;;;11.53;64.62
25156;BME280;21913;52.456;13.634;2023-02-15T16:08:33;101077.66;;;11.52;64.58
25156;BME280;21913;52.456;13.634;2023-02-15T16:13:35;101080.25;;;11.52;64.52
25156;BME280;21913;52.456;13.634;2023-02-15T16:18:40;101076.78;;;11.52;64.73
25156;BME280;21913;52.456;13.634;2023-02-15T16:29:00;101074.19;;;11.52;64.81
25156;BME280;21913;52.456;13.634;2023-02-15T16:34:14;101069.88;;;11.52;64.82
25156;BME280;21913;52.456;13.634;2023-02-15T16:39:19;101076.78;;;11.52;64.66
25156;BME280;21913;52.456;13.634;2023-02-15T16:44:21;101081.09;;;11.51;64.74
25156;BME280;21913;52.456;13.634;2023-02-15T16:49:25;101076.78;;;11.52;64.82
25156;BME280;21913;52.456;13.634;2023-02-15T16:54:29;101072.47;;;11.51;64.73
25156;BME280;21913;52.456;13.634;2023-02-15T16:59:35;101080.25;;;11.52;64.81
25156;BME280;21913;52.456;13.634;2023-02-15T17:04:40;101085.44;;;11.51;64.94
25156;BME280;21913;52.456;13.634;2023-02-15T17:09:52;101091.47;;;11.51;65.03
25156;BME280;21913;52.456;13.634;2023-02-15T17:14:54;101095.78;;;11.51;64.86
25156;BME280;21913;52.456;13.634;2023-02-15T17:19:56;101095.78;;;11.51;65.02
25156;BME280;21913;52.456;13.634;2023-02-15T17:25:00;101095.78;;;11.51;64.96
25156;BME280;21913;52.456;13.634;2023-02-15T17:30:20;101100.13;;;11.52;64.91
25156;BME280;21913;52.456;13.634;2023-02-15T17:35:30;101100.09;;;11.50;65.14
25156;BME280;21913;52.456;13.634;2023-02-15T17:40:34;101095.78;;;11.51;65.00
25156;BME280;21913;52.456;13.634;2023-02-15T17:45:41;101098.38;;;11.51;65.02
25156;BME280;21913;52.456;13.634;2023-02-15T17:50:44;101090.59;;;11.51;65.09
25156;BME280;21913;52.456;13.634;2023-02-15T17:55:45;101081.09;;;11.51;65.06
25156;BME280;21913;52.456;13.634;2023-02-15T18:00:52;101075.97;;;11.53;65.25
25156;BME280;21913;52.456;13.634;2023-02-15T18:05:56;101075.94;;;11.51;65.09
25156;BME280;21913;52.456;13.634;2023-02-15T18:10:59;101080.25;;;11.51;65.06
25156;BME280;21913;52.456;13.634;2023-02-15T18:16:01;101072.47;;;11.51;64.93
25156;BME280;21913;52.456;13.634;2023-02-15T18:21:03;101082.84;;;11.51;65.15
25156;BME280;21913;52.456;13.634;2023-02-15T18:26:05;101077.66;;;11.51;65.08
25156;BME280;21913;52.456;13.634;2023-02-15T18:31:07;101081.09;;;11.51;64.98
25156;BME280;21913;52.456;13.634;2023-02-15T18:36:16;101087.16;;;11.52;65.16
25156;BME280;21913;52.456;13.634;2023-02-15T18:41:19;101082.84;;;11.51;65.14
25156;BME280;21913;52.456;13.634;2023-02-15T18:46:21;101087.16;;;11.50;65.17
25156;BME280;21913;52.456;13.634;2023-02-15T18:51:23;101086.28;;;11.50;65.17
25156;BME280;21913;52.456;13.634;2023-02-15T18:56:25;101088.03;;;11.51;65.05
25156;BME280;21913;52.456;13.634;2023-02-15T19:01:29;101086.28;;;11.51;65.02
25156;BME280;21913;52.456;13.634;2023-02-15T19:06:36;101094.06;;;11.51;64.76
25156;BME280;21913;52.456;13.634;2023-02-15T19:11:50;101093.19;;;11.51;65.00
25156;BME280;21913;52.456;13.634;2023-02-15T19:16:52;101090.59;;;11.51;65.17
25156;BME280;21913;52.456;13.634;2023-02-15T19:21:55;101093.19;;;11.51;65.21
25156;BME280;21913;52.456;13.634;2023-02-15T19:26:57;101110.47;;;11.52;65.07
25156;BME280;21913;52.456;13.634;2023-02-15T19:31:58;101107.88;;;11.50;65.20
25156;BME280;21913;52.456;13.634;2023-02-15T19:37:00;101118.25;;;11.52;65.17
25156;BME280;21913;52.456;13.634;2023-02-15T19:42:02;101119.13;;;11.52;65.13
25156;BME280;21913;52.456;13.634;2023-02-15T19:47:07;101122.56;;;11.51;65.02
25156;BME280;21913;52.456;13.634;2023-02-15T19:52:20;101122.56;;;11.51;65.17
25156;BME280;21913;52.456;13.634;2023-02-15T19:57:23;101126.88;;;11.51;65.19
25156;BME280;21913;52.456;13.634;2023-02-15T20:02:25;101125.16;;;11.51;65.19
25156;BME280;21913;52.456;13.634;2023-02-15T20:07:27;101129.47;;;11.51;65.16
25156;BME280;21913;52.456;13.634;2023-02-15T20:12:28;101136.41;;;11.52;65.06
25156;BME280;21913;52.456;13.634;2023-02-15T20:17:30;101132.06;;;11.51;65.16
25156;BME280;21913;52.456;13.634;2023-02-15T20:22:32;101121.72;;;11.51;65.15
25156;BME280;21913;52.456;13.634;2023-02-15T20:27:34;101125.16;;;11.51;65.08
25156;BME280;21913;52.456;13.634;2023-02-15T20:32:35;101124.31;;;11.52;65.03
25156;BME280;21913;52.456;13.634;2023-02-15T20:37:37;101121.72;;;11.51;65.13
25156;BME280;21913;52.456;13.634;2023-02-15T20:42:39;101122.56;;;11.51;65.15
25156;BME280;21913;52.456;13.634;2023-02-15T20:47:40;101112.22;;;11.51;65.08
25156;BME280;21913;52.456;13.634;2023-02-15T20:52:42;101106.16;;;11.51;65.13
25156;BME280;21913;52.456;13.634;2023-02-15T20:57:44;101113.94;;;11.51;64.99
25156;BME280;21913;52.456;13.634;2023-02-15T21:02:47;101114.81;;;11.51;65.00
25156;BME280;21913;52.456;13.634;2023-02-15T21:07:50;101122.56;;;11.51;65.11
25156;BME280;21913;52.456;13.634;2023-02-15T21:12:52;101120.84;;;11.50;65.21
25156;BME280;21913;52.456;13.634;2023-02-15T21:17:55;101125.16;;;11.51;65.25
25156;BME280;21913;52.456;13.634;2023-02-15T21:22:59;101119.13;;;11.51;65.15
25156;BME280;21913;52.456;13.634;2023-02-15T21:28:05;101116.53;;;11.51;65.25
25156;BME280;21913;52.456;13.634;2023-02-15T21:33:07;101135.53;;;11.50;65.08
25156;BME280;21913;52.456;13.634;2023-02-15T21:38:12;101135.53;;;11.51;65.06
25156;BME280;21913;52.456;13.634;2023-02-15T21:43:23;101140.72;;;11.51;65.03
25156;BME280;21913;52.456;13.634;2023-02-15T21:48:24;101141.56;;;11.50;65.10
25156;BME280;21913;52.456;13.634;2023-02-15T21:53:32;101140.72;;;11.51;65.21
25156;BME280;21913;52.456;13.634;2023-02-15T21:58:35;101137.25;;;11.51;65.17
25156;BME280;21913;52.456;13.634;2023-02-15T22:03:37;101125.16;;;11.50;65.10
25156;BME280;21913;52.456;13.634;2023-02-15T22:08:38;101131.22;;;11.50;65.08
25156;BME280;21913;52.456;13.634;2023-02-15T22:13:41;101129.47;;;11.51;64.90
25156;BME280;21913;52.456;13.634;2023-02-15T22:18:44;101132.06;;;11.51;64.96
25156;BME280;21913;52.456;13.634;2023-02-15T22:23:46;101120.84;;;11.50;65.01
25156;BME280;21913;52.456;13.634;2023-02-15T22:28:48;101119.97;;;11.50;65.02
25156;BME280;21913;52.456;13.634;2023-02-15T22:33:50;101127.75;;;11.50;65.00
25156;BME280;21913;52.456;13.634;2023-02-15T22:38:52;101123.44;;;11.50;65.04
25156;BME280;21913;52.456;13.634;2023-02-15T22:43:55;101126.03;;;11.50;65.02
25156;BME280;21913;52.456;13.634;2023-02-15T22:48:57;101118.25;;;11.50;64.98
25156;BME280;21913;52.456;13.634;2023-02-15T22:53:58;101127.75;;;11.50;64.93
25156;BME280;21913;52.456;13.634;2023-02-15T22:59:05;101132.06;;;11.51;65.03
25156;BME280;21913;52.456;13.634;2023-02-15T23:04:15;101142.44;;;11.51;65.11
25156;BME280;21913;52.456;13.634;2023-02-15T23:09:18;101131.22;;;11.50;65.00
25156;BME280;21913;52.456;13.634;2023-02-15T23:14:32;101136.38;;;11.50;64.98
25156;BME280;21913;52.456;13.634;2023-02-15T23:19:34;101136.38;;;11.50;65.06
25156;BME280;21913;52.456;13.634;2023-02-15T23:24:36;101134.66;;;11.49;64.95
25156;BME280;21913;52.456;13.634;2023-02-15T23:29:37;101132.06;;;11.49;64.90
25156;BME280;21913;52.456;13.634;2023-02-15T23:34:40;101136.38;;;11.50;65.08
25156;BME280;21913;52.456;13.634;2023-02-15T23:39:42;101141.56;;;11.50;64.86
25156;BME280;21913;52.456;13.634;2023-02-15T23:44:45;101137.25;;;11.51;65.03
25156;BME280;21913;52.456;13.634;2023-02-15T23:49:47;101133.81;;;11.50;65.00
25156;BME280;21913;52.456;13.634;2023-02-15T23:54:48;101133.81;;;11.50;65.07
25156;BME280;21913;52.456;13.634;2023-02-15T23:59:50;101128.63;;;11.50;65.06
